sensor_id;sensor_type;location;lat;lon;timestamp;P1;durP1;ratioP1;P2;durP2;ratioP2
15990;SDS011;8100;50.994;4.538;2023-04-25T00:00:22;11.30;;;2.97;;
15990;SDS011;8100;50.994;4.538;2023-04-25T00:03:10;6.85;;;2.95;;
15990;SDS011;8100;50.994;4.538;2023-04-25T00:05:59;9.93;;;3.15;;
15990;SDS011;8100;50.994;4.538;2023-04-25T00:08:47;10.90;;;3.17;;
15990;SDS011;8100;50.994;4.538;2023-04-25T00:11:35;10.30;;;3.13;;
15990;SDS011;8100;50.994;4.538;2023-04-25T00:14:23;11.70;;;3.13;;
15990;SDS011;8100;50.994;4.538;2023-04-25T00:17:10;10.57;;;3.00;;
15990;SDS011;8100;50.994;4.538;2023-04-25T00:19:58;13.27;;;3.17;;
15990;SDS011;8100;50.994;4.538;2023-04-25T00:22:46;11.98;;;3.25;;
15990;SDS011;8100;50.994;4.538;2023-04-25T00:25:34;11.77;;;3.28;;
15990;SDS011;8100;50.994;4.538;2023-04-25T00:28:21;10.63;;;3.08;;
15990;SDS011;8100;50.994;4.538;2023-04-25T00:31:08;10.38;;;3.10;;
15990;SDS011;8100;50.994;4.538;2023-04-25T00:33:56;8.73;;;3.17;;
15990;SDS011;8100;50.994;4.538;2023-04-25T00:36:43;15.50;;;3.35;;
15990;SDS011;8100;50.994;4.538;2023-04-25T00:39:32;11.60;;;3.58;;
15990;SDS011;8100;50.994;4.538;2023-04-25T00:42:19;9.25;;;3.00;;
15990;SDS011;8100;50.994;4.538;2023-04-25T00:45:07;8.38;;;2.90;;
15990;SDS011;8100;50.994;4.538;2023-04-25T00:47:59;11.93;;;3.17;;
15990;SDS011;8100;50.994;4.538;2023-04-25T00:50:49;11.50;;;3.58;;
15990;SDS011;8100;50.994;4.538;2023-04-25T00:53:39;8.55;;;3.22;;
15990;SDS011;8100;50.994;4.538;2023-04-25T00:56:28;7.93;;;3.30;;
15990;SDS011;8100;50.994;4.538;2023-04-25T00:59:15;10.35;;;3.03;;
15990;SDS011;8100;50.994;4.538;2023-04-25T01:02:04;11.88;;;2.60;;
15990;SDS011;8100;50.994;4.538;2023-04-25T01:04:52;10.73;;;3.58;;
15990;SDS011;8100;50.994;4.538;2023-04-25T01:07:40;11.13;;;3.03;;
15990;SDS011;8100;50.994;4.538;2023-04-25T01:10:27;7.18;;;3.33;;
15990;SDS011;8100;50.994;4.538;2023-04-25T01:13:16;10.25;;;3.38;;
15990;SDS011;8100;50.994;4.538;2023-04-25T01:16:04;9.23;;;3.35;;
15990;SDS011;8100;50.994;4.538;2023-04-25T01:18:51;11.38;;;2.80;;
15990;SDS011;8100;50.994;4.538;2023-04-25T01:21:40;8.88;;;3.13;;
15990;SDS011;8100;50.994;4.538;2023-04-25T01:24:28;11.55;;;3.10;;
15990;SDS011;8100;50.994;4.538;2023-04-25T01:27:15;16.80;;;3.50;;
15990;SDS011;8100;50.994;4.538;2023-04-25T01:30:03;10.40;;;3.00;;
15990;SDS011;8100;50.994;4.538;2023-04-25T01:32:52;9.23;;;3.00;;
15990;SDS011;8100;50.994;4.538;2023-04-25T01:35:41;12.85;;;3.28;;
15990;SDS011;8100;50.994;4.538;2023-04-25T01:38:30;11.32;;;3.38;;
15990;SDS011;8100;50.994;4.538;2023-04-25T01:41:18;12.65;;;3.38;;
15990;SDS011;8100;50.994;4.538;2023-04-25T01:44:05;9.45;;;3.20;;
15990;SDS011;8100;50.994;4.538;2023-04-25T01:46:53;11.40;;;3.20;;
15990;SDS011;8100;50.994;4.538;2023-04-25T01:49:41;10.25;;;3.63;;
15990;SDS011;8100;50.994;4.538;2023-04-25T01:52:28;10.85;;;3.30;;
15990;SDS011;8100;50.994;4.538;2023-04-25T01:55:17;12.57;;;3.38;;
15990;SDS011;8100;50.994;4.538;2023-04-25T01:58:04;13.27;;;3.40;;
15990;SDS011;8100;50.994;4.538;2023-04-25T02:00:54;14.57;;;3.95;;
15990;SDS011;8100;50.994;4.538;2023-04-25T02:03:42;9.55;;;3.28;;
15990;SDS011;8100;50.994;4.538;2023-04-25T02:06:30;12.55;;;3.63;;
15990;SDS011;8100;50.994;4.538;2023-04-25T02:09:17;14.18;;;3.33;;
15990;SDS011;8100;50.994;4.538;2023-04-25T02:12:07;9.73;;;3.78;;
15990;SDS011;8100;50.994;4.538;2023-04-25T02:14:56;8.98;;;3.10;;
15990;SDS011;8100;50.994;4.538;2023-04-25T02:17:43;11.05;;;3.50;;
15990;SDS011;8100;50.994;4.538;2023-04-25T02:20:31;13.05;;;3.05;;
15990;SDS011;8100;50.994;4.538;2023-04-25T02:23:18;9.98;;;3.70;;
15990;SDS011;8100;50.994;4.538;2023-04-25T02:26:06;12.93;;;3.70;;
15990;SDS011;8100;50.994;4.538;2023-04-25T02:28:54;13.30;;;3.47;;
15990;SDS011;8100;50.994;4.538;2023-04-25T02:31:42;15.88;;;3.83;;
15990;SDS011;8100;50.994;4.538;2023-04-25T02:34:29;14.40;;;3.58;;
15990;SDS011;8100;50.994;4.538;2023-04-25T02:37:17;12.05;;;3.63;;
15990;SDS011;8100;50.994;4.538;2023-04-25T02:40:05;9.98;;;3.40;;
15990;SDS011;8100;50.994;4.538;2023-04-25T02:42:53;15.15;;;3.47;;
15990;SDS011;8100;50.994;4.538;2023-04-25T02:45:42;13.82;;;3.50;;
15990;SDS011;8100;50.994;4.538;2023-04-25T02:48:30;11.73;;;2.80;;
15990;SDS011;8100;50.994;4.538;2023-04-25T02:51:17;10.45;;;2.60;;
15990;SDS011;8100;50.994;4.538;2023-04-25T02:54:04;10.98;;;2.58;;
15990;SDS011;8100;50.994;4.538;2023-04-25T02:56:52;9.35;;;2.28;;
15990;SDS011;8100;50.994;4.538;2023-04-25T02:59:39;8.25;;;2.45;;
15990;SDS011;8100;50.994;4.538;2023-04-25T03:02:28;7.10;;;1.90;;
15990;SDS011;8100;50.994;4.538;2023-04-25T03:05:15;13.38;;;2.45;;
15990;SDS011;8100;50.994;4.538;2023-04-25T03:08:03;7.75;;;2.17;;
15990;SDS011;8100;50.994;4.538;2023-04-25T03:10:50;11.93;;;2.63;;
15990;SDS011;8100;50.994;4.538;2023-04-25T03:13:40;12.90;;;2.67;;
15990;SDS011;8100;50.994;4.538;2023-04-25T03:16:28;11.70;;;2.20;;
15990;SDS011;8100;50.994;4.538;2023-04-25T03:19:17;10.27;;;2.60;;
15990;SDS011;8100;50.994;4.538;2023-04-25T03:22:05;14.45;;;3.10;;
15990;SDS011;8100;50.994;4.538;2023-04-25T03:24:53;11.18;;;2.42;;
15990;SDS011;8100;50.994;4.538;2023-04-25T03:27:40;11.02;;;2.53;;
15990;SDS011;8100;50.994;4.538;2023-04-25T03:30:27;7.60;;;2.38;;
15990;SDS011;8100;50.994;4.538;2023-04-25T03:33:15;8.40;;;2.50;;
15990;SDS011;8100;50.994;4.538;2023-04-25T03:36:04;10.18;;;2.03;;
15990;SDS011;8100;50.994;4.538;2023-04-25T03:38:52;10.35;;;2.70;;
15990;SDS011;8100;50.994;4.538;2023-04-25T03:41:39;7.57;;;1.95;;
15990;SDS011;8100;50.994;4.538;2023-04-25T03:44:26;10.65;;;2.63;;
15990;SDS011;8100;50.994;4.538;2023-04-25T03:47:14;9.05;;;2.00;;
15990;SDS011;8100;50.994;4.538;2023-04-25T03:50:01;11.65;;;2.13;;
15990;SDS011;8100;50.994;4.538;2023-04-25T03:52:50;10.40;;;2.00;;
15990;SDS011;8100;50.994;4.538;2023-04-25T03:55:38;7.50;;;2.10;;
15990;SDS011;8100;50.994;4.538;2023-04-25T03:58:25;7.53;;;1.90;;
15990;SDS011;8100;50.994;4.538;2023-04-25T04:01:12;7.88;;;2.28;;
15990;SDS011;8100;50.994;4.538;2023-04-25T04:04:00;10.90;;;2.05;;
15990;SDS011;8100;50.994;4.538;2023-04-25T04:06:47;8.63;;;2.40;;
15990;SDS011;8100;50.994;4.538;2023-04-25T04:09:36;6.35;;;1.88;;
15990;SDS011;8100;50.994;4.538;2023-04-25T04:12:23;9.30;;;2.08;;
15990;SDS011;8100;50.994;4.538;2023-04-25T04:15:11;8.35;;;2.17;;
15990;SDS011;8100;50.994;4.538;2023-04-25T04:17:58;5.90;;;1.77;;
15990;SDS011;8100;50.994;4.538;2023-04-25T04:20:48;7.20;;;2.10;;
15990;SDS011;8100;50.994;4.538;2023-04-25T04:23:35;6.78;;;2.00;;
15990;SDS011;8100;50.994;4.538;2023-04-25T04:26:24;8.90;;;2.00;;
15990;SDS011;8100;50.994;4.538;2023-04-25T04:29:11;6.72;;;2.33;;
15990;SDS011;8100;50.994;4.538;2023-04-25T04:32:06;9.75;;;2.35;;
15990;SDS011;8100;50.994;4.538;2023-04-25T04:34:54;10.02;;;2.63;;
15990;SDS011;8100;50.994;4.538;2023-04-25T04:37:41;8.77;;;2.33;;
15990;SDS011;8100;50.994;4.538;2023-04-25T04:40:29;8.63;;;2.47;;
15990;SDS011;8100;50.994;4.538;2023-04-25T04:43:19;7.80;;;2.17;;
15990;SDS011;8100;50.994;4.538;2023-04-25T04:46:06;10.43;;;2.40;;
15990;SDS011;8100;50.994;4.538;2023-04-25T04:48:55;7.20;;;2.13;;
15990;SDS011;8100;50.994;4.538;2023-04-25T04:51:44;9.60;;;2.97;;
15990;SDS011;8100;50.994;4.538;2023-04-25T04:54:31;9.30;;;2.72;;
15990;SDS011;8100;50.994;4.538;2023-04-25T04:57:20;9.95;;;2.75;;
15990;SDS011;8100;50.994;4.538;2023-04-25T05:00:10;9.85;;;2.60;;
15990;SDS011;8100;50.994;4.538;2023-04-25T05:02:58;11.35;;;2.75;;
15990;SDS011;8100;50.994;4.538;2023-04-25T05:05:46;9.32;;;2.55;;
15990;SDS011;8100;50.994;4.538;2023-04-25T05:08:33;7.35;;;2.88;;
15990;SDS011;8100;50.994;4.538;2023-04-25T05:11:21;9.25;;;2.75;;
15990;SDS011;8100;50.994;4.538;2023-04-25T05:14:08;10.07;;;2.53;;
15990;SDS011;8100;50.994;4.538;2023-04-25T05:16:57;5.63;;;2.30;;
15990;SDS011;8100;50.994;4.538;2023-04-25T05:19:44;11.90;;;2.53;;
15990;SDS011;8100;50.994;4.538;2023-04-25T05:22:32;10.18;;;2.53;;
15990;SDS011;8100;50.994;4.538;2023-04-25T05:25:19;10.00;;;2.50;;
15990;SDS011;8100;50.994;4.538;2023-04-25T05:28:06;8.75;;;2.58;;
15990;SDS011;8100;50.994;4.538;2023-04-25T05:30:54;8.10;;;2.80;;
15990;SDS011;8100;50.994;4.538;2023-04-25T05:33:42;9.18;;;2.47;;
15990;SDS011;8100;50.994;4.538;2023-04-25T05:36:30;7.32;;;2.50;;
15990;SDS011;8100;50.994;4.538;2023-04-25T05:39:18;10.27;;;2.95;;
15990;SDS011;8100;50.994;4.538;2023-04-25T05:42:05;11.30;;;3.00;;
15990;SDS011;8100;50.994;4.538;2023-04-25T05:44:52;11.85;;;2.97;;
15990;SDS011;8100;50.994;4.538;2023-04-25T05:47:40;11.25;;;3.00;;
15990;SDS011;8100;50.994;4.538;2023-04-25T05:50:28;11.48;;;2.83;;
15990;SDS011;8100;50.994;4.538;2023-04-25T05:53:15;8.60;;;2.83;;
15990;SDS011;8100;50.994;4.538;2023-04-25T05:56:03;8.85;;;3.08;;
15990;SDS011;8100;50.994;4.538;2023-04-25T05:58:51;8.75;;;2.58;;
15990;SDS011;8100;50.994;4.538;2023-04-25T06:01:38;8.82;;;3.17;;
15990;SDS011;8100;50.994;4.538;2023-04-25T06:04:25;7.80;;;2.83;;
15990;SDS011;8100;50.994;4.538;2023-04-25T06:07:14;10.27;;;2.92;;
15990;SDS011;8100;50.994;4.538;2023-04-25T06:10:01;10.25;;;3.10;;
15990;SDS011;8100;50.994;4.538;2023-04-25T06:12:51;10.23;;;3.10;;
15990;SDS011;8100;50.994;4.538;2023-04-25T06:15:38;9.60;;;2.85;;
15990;SDS011;8100;50.994;4.538;2023-04-25T06:18:26;10.80;;;3.50;;
15990;SDS011;8100;50.994;4.538;2023-04-25T06:21:13;8.98;;;2.65;;
15990;SDS011;8100;50.994;4.538;2023-04-25T06:24:02;10.68;;;2.80;;
15990;SDS011;8100;50.994;4.538;2023-04-25T06:26:50;12.73;;;3.25;;
15990;SDS011;8100;50.994;4.538;2023-04-25T06:29:38;8.75;;;2.88;;
15990;SDS011;8100;50.994;4.538;2023-04-25T06:32:25;10.68;;;3.00;;
15990;SDS011;8100;50.994;4.538;2023-04-25T06:35:14;8.57;;;2.65;;
15990;SDS011;8100;50.994;4.538;2023-04-25T06:38:01;8.85;;;2.45;;
15990;SDS011;8100;50.994;4.538;2023-04-25T06:40:50;10.02;;;2.90;;
15990;SDS011;8100;50.994;4.538;2023-04-25T06:43:37;10.68;;;3.05;;
15990;SDS011;8100;50.994;4.538;2023-04-25T06:46:25;8.30;;;2.60;;
15990;SDS011;8100;50.994;4.538;2023-04-25T06:49:13;8.75;;;2.58;;
15990;SDS011;8100;50.994;4.538;2023-04-25T06:52:00;7.47;;;2.90;;
15990;SDS011;8100;50.994;4.538;2023-04-25T06:54:48;9.45;;;3.10;;
15990;SDS011;8100;50.994;4.538;2023-04-25T06:57:36;9.23;;;3.65;;
15990;SDS011;8100;50.994;4.538;2023-04-25T07:00:24;11.88;;;3.15;;
15990;SDS011;8100;50.994;4.538;2023-04-25T07:03:11;12.23;;;3.58;;
15990;SDS011;8100;50.994;4.538;2023-04-25T07:05:58;12.63;;;3.83;;
15990;SDS011;8100;50.994;4.538;2023-04-25T07:08:46;10.75;;;3.60;;
15990;SDS011;8100;50.994;4.538;2023-04-25T07:11:33;15.00;;;3.97;;
15990;SDS011;8100;50.994;4.538;2023-04-25T07:14:22;10.88;;;3.20;;
15990;SDS011;8100;50.994;4.538;2023-04-25T07:17:09;13.35;;;3.88;;
15990;SDS011;8100;50.994;4.538;2023-04-25T07:19:57;11.27;;;3.30;;
15990;SDS011;8100;50.994;4.538;2023-04-25T07:22:44;14.80;;;4.05;;
15990;SDS011;8100;50.994;4.538;2023-04-25T07:25:32;9.50;;;3.00;;
15990;SDS011;8100;50.994;4.538;2023-04-25T07:28:19;13.13;;;3.20;;
15990;SDS011;8100;50.994;4.538;2023-04-25T07:31:08;12.68;;;2.92;;
15990;SDS011;8100;50.994;4.538;2023-04-25T07:33:55;10.45;;;2.63;;
15990;SDS011;8100;50.994;4.538;2023-04-25T07:36:43;12.82;;;2.90;;
15990;SDS011;8100;50.994;4.538;2023-04-25T07:39:30;10.60;;;2.70;;
15990;SDS011;8100;50.994;4.538;2023-04-25T07:42:17;10.15;;;2.67;;
15990;SDS011;8100;50.994;4.538;2023-04-25T07:45:05;11.48;;;2.50;;
15990;SDS011;8100;50.994;4.538;2023-04-25T07:47:56;10.15;;;2.38;;
15990;SDS011;8100;50.994;4.538;2023-04-25T07:50:43;7.30;;;2.50;;
15990;SDS011;8100;50.994;4.538;2023-04-25T07:53:30;11.32;;;2.40;;
15990;SDS011;8100;50.994;4.538;2023-04-25T07:56:20;8.30;;;2.13;;
15990;SDS011;8100;50.994;4.538;2023-04-25T07:59:07;8.93;;;1.95;;
15990;SDS011;8100;50.994;4.538;2023-04-25T08:01:54;10.63;;;2.60;;
15990;SDS011;8100;50.994;4.538;2023-04-25T08:04:44;13.57;;;3.75;;
15990;SDS011;8100;50.994;4.538;2023-04-25T08:07:31;11.55;;;2.78;;
15990;SDS011;8100;50.994;4.538;2023-04-25T08:10:19;8.45;;;1.83;;
15990;SDS011;8100;50.994;4.538;2023-04-25T08:13:08;8.57;;;1.80;;
15990;SDS011;8100;50.994;4.538;2023-04-25T08:15:55;6.93;;;1.70;;
15990;SDS011;8100;50.994;4.538;2023-04-25T08:18:43;6.43;;;2.22;;
15990;SDS011;8100;50.994;4.538;2023-04-25T08:21:31;6.85;;;1.90;;
15990;SDS011;8100;50.994;4.538;2023-04-25T08:24:19;7.35;;;1.77;;
15990;SDS011;8100;50.994;4.538;2023-04-25T08:27:06;4.05;;;1.35;;
15990;SDS011;8100;50.994;4.538;2023-04-25T08:29:54;6.05;;;1.27;;
15990;SDS011;8100;50.994;4.538;2023-04-25T08:32:41;9.20;;;1.83;;
15990;SDS011;8100;50.994;4.538;2023-04-25T08:35:28;8.07;;;1.88;;
15990;SDS011;8100;50.994;4.538;2023-04-25T08:38:17;10.00;;;1.85;;
15990;SDS011;8100;50.994;4.538;2023-04-25T08:41:05;7.72;;;1.63;;
15990;SDS011;8100;50.994;4.538;2023-04-25T08:43:53;6.63;;;1.75;;
15990;SDS011;8100;50.994;4.538;2023-04-25T08:46:42;9.70;;;2.00;;
15990;SDS011;8100;50.994;4.538;2023-04-25T08:49:35;9.48;;;2.60;;
15990;SDS011;8100;50.994;4.538;2023-04-25T08:52:24;11.40;;;2.15;;
15990;SDS011;8100;50.994;4.538;2023-04-25T08:55:16;8.60;;;2.10;;
15990;SDS011;8100;50.994;4.538;2023-04-25T08:58:04;6.07;;;1.90;;
15990;SDS011;8100;50.994;4.538;2023-04-25T09:00:52;8.25;;;2.28;;
15990;SDS011;8100;50.994;4.538;2023-04-25T09:03:39;7.05;;;2.25;;
15990;SDS011;8100;50.994;4.538;2023-04-25T09:06:27;8.68;;;1.70;;
15990;SDS011;8100;50.994;4.538;2023-04-25T09:09:15;11.27;;;2.10;;
15990;SDS011;8100;50.994;4.538;2023-04-25T09:12:05;5.95;;;1.50;;
15990;SDS011;8100;50.994;4.538;2023-04-25T09:15:05;2.83;;;1.08;;
15990;SDS011;8100;50.994;4.538;2023-04-25T09:17:55;4.55;;;1.40;;
15990;SDS011;8100;50.994;4.538;2023-04-25T09:20:42;7.88;;;1.25;;
15990;SDS011;8100;50.994;4.538;2023-04-25T09:23:30;5.65;;;1.48;;
15990;SDS011;8100;50.994;4.538;2023-04-25T09:26:24;4.63;;;1.02;;
15990;SDS011;8100;50.994;4.538;2023-04-25T09:29:14;4.80;;;0.90;;
15990;SDS011;8100;50.994;4.538;2023-04-25T09:32:11;3.67;;;0.93;;
15990;SDS011;8100;50.994;4.538;2023-04-25T09:35:03;6.57;;;1.60;;
15990;SDS011;8100;50.994;4.538;2023-04-25T09:37:51;4.00;;;1.50;;
15990;SDS011;8100;50.994;4.538;2023-04-25T09:40:39;6.72;;;1.10;;
15990;SDS011;8100;50.994;4.538;2023-04-25T09:43:27;4.38;;;1.33;;
15990;SDS011;8100;50.994;4.538;2023-04-25T09:46:16;4.82;;;1.50;;
15990;SDS011;8100;50.994;4.538;2023-04-25T09:49:06;4.82;;;1.33;;
15990;SDS011;8100;50.994;4.538;2023-04-25T09:51:54;4.65;;;1.30;;
15990;SDS011;8100;50.994;4.538;2023-04-25T09:54:42;6.05;;;1.25;;
15990;SDS011;8100;50.994;4.538;2023-04-25T09:57:30;6.80;;;1.45;;
15990;SDS011;8100;50.994;4.538;2023-04-25T10:00:18;3.08;;;1.10;;
15990;SDS011;8100;50.994;4.538;2023-04-25T10:03:08;4.15;;;1.40;;
15990;SDS011;8100;50.994;4.538;2023-04-25T10:05:57;4.78;;;1.20;;
15990;SDS011;8100;50.994;4.538;2023-04-25T10:08:46;4.22;;;1.20;;
15990;SDS011;8100;50.994;4.538;2023-04-25T10:11:37;2.95;;;1.17;;
15990;SDS011;8100;50.994;4.538;2023-04-25T10:14:26;2.17;;;0.90;;
15990;SDS011;8100;50.994;4.538;2023-04-25T10:17:14;5.32;;;1.15;;
15990;SDS011;8100;50.994;4.538;2023-04-25T10:20:03;3.67;;;1.00;;
15990;SDS011;8100;50.994;4.538;2023-04-25T10:22:57;3.55;;;1.10;;
15990;SDS011;8100;50.994;4.538;2023-04-25T10:25:49;6.47;;;1.05;;
15990;SDS011;8100;50.994;4.538;2023-04-25T10:31:44;6.95;;;1.20;;
15990;SDS011;8100;50.994;4.538;2023-04-25T10:34:39;4.03;;;1.08;;
15990;SDS011;8100;50.994;4.538;2023-04-25T10:37:29;5.07;;;1.25;;
15990;SDS011;8100;50.994;4.538;2023-04-25T10:40:18;6.60;;;1.30;;
15990;SDS011;8100;50.994;4.538;2023-04-25T10:46:25;8.65;;;1.70;;
15990;SDS011;8100;50.994;4.538;2023-04-25T10:49:31;7.93;;;1.35;;
15990;SDS011;8100;50.994;4.538;2023-04-25T10:52:24;5.45;;;1.50;;
15990;SDS011;8100;50.994;4.538;2023-04-25T10:55:14;5.38;;;1.10;;
15990;SDS011;8100;50.994;4.538;2023-04-25T10:58:02;4.40;;;1.25;;
15990;SDS011;8100;50.994;4.538;2023-04-25T11:00:50;4.20;;;1.08;;
15990;SDS011;8100;50.994;4.538;2023-04-25T11:03:40;3.72;;;0.80;;
15990;SDS011;8100;50.994;4.538;2023-04-25T11:06:29;6.57;;;1.52;;
15990;SDS011;8100;50.994;4.538;2023-04-25T11:09:27;4.15;;;1.48;;
15990;SDS011;8100;50.994;4.538;2023-04-25T11:12:16;3.88;;;1.52;;
15990;SDS011;8100;50.994;4.538;2023-04-25T11:15:04;6.38;;;2.00;;
15990;SDS011;8100;50.994;4.538;2023-04-25T11:17:53;3.72;;;1.58;;
15990;SDS011;8100;50.994;4.538;2023-04-25T11:20:41;4.15;;;1.60;;
15990;SDS011;8100;50.994;4.538;2023-04-25T11:23:30;5.05;;;1.65;;
15990;SDS011;8100;50.994;4.538;2023-04-25T11:26:18;7.95;;;1.30;;
15990;SDS011;8100;50.994;4.538;2023-04-25T11:29:07;3.70;;;1.30;;
15990;SDS011;8100;50.994;4.538;2023-04-25T11:31:55;2.67;;;1.27;;
15990;SDS011;8100;50.994;4.538;2023-04-25T11:34:43;3.28;;;1.23;;
15990;SDS011;8100;50.994;4.538;2023-04-25T11:37:31;4.57;;;1.80;;
15990;SDS011;8100;50.994;4.538;2023-04-25T11:40:19;2.63;;;1.00;;
15990;SDS011;8100;50.994;4.538;2023-04-25T11:43:07;4.88;;;1.20;;
15990;SDS011;8100;50.994;4.538;2023-04-25T11:45:57;3.53;;;1.40;;
15990;SDS011;8100;50.994;4.538;2023-04-25T11:48:45;5.97;;;1.42;;
15990;SDS011;8100;50.994;4.538;2023-04-25T11:51:37;3.53;;;1.20;;
15990;SDS011;8100;50.994;4.538;2023-04-25T11:54:26;2.67;;;1.00;;
15990;SDS011;8100;50.994;4.538;2023-04-25T11:57:13;3.50;;;1.10;;
15990;SDS011;8100;50.994;4.538;2023-04-25T12:00:10;3.33;;;0.77;;
15990;SDS011;8100;50.994;4.538;2023-04-25T12:03:00;4.10;;;0.95;;
15990;SDS011;8100;50.994;4.538;2023-04-25T12:05:48;3.47;;;1.00;;
15990;SDS011;8100;50.994;4.538;2023-04-25T12:08:37;2.00;;;0.65;;
15990;SDS011;8100;50.994;4.538;2023-04-25T12:11:24;5.10;;;1.10;;
15990;SDS011;8100;50.994;4.538;2023-04-25T12:14:11;2.80;;;0.93;;
15990;SDS011;8100;50.994;4.538;2023-04-25T12:17:06;3.65;;;0.80;;
15990;SDS011;8100;50.994;4.538;2023-04-25T12:19:56;1.73;;;0.65;;
15990;SDS011;8100;50.994;4.538;2023-04-25T12:22:44;3.30;;;0.70;;
15990;SDS011;8100;50.994;4.538;2023-04-25T12:25:36;1.27;;;0.55;;
15990;SDS011;8100;50.994;4.538;2023-04-25T12:28:24;2.53;;;0.70;;
15990;SDS011;8100;50.994;4.538;2023-04-25T12:31:12;2.22;;;0.70;;
15990;SDS011;8100;50.994;4.538;2023-04-25T12:34:01;1.30;;;0.85;;
15990;SDS011;8100;50.994;4.538;2023-04-25T12:36:50;3.28;;;1.20;;
15990;SDS011;8100;50.994;4.538;2023-04-25T12:39:38;2.80;;;0.73;;
15990;SDS011;8100;50.994;4.538;2023-04-25T12:42:25;4.13;;;1.30;;
15990;SDS011;8100;50.994;4.538;2023-04-25T12:45:13;5.47;;;1.10;;
15990;SDS011;8100;50.994;4.538;2023-04-25T12:48:00;4.25;;;1.10;;
15990;SDS011;8100;50.994;4.538;2023-04-25T12:50:48;4.05;;;1.10;;
15990;SDS011;8100;50.994;4.538;2023-04-25T12:53:38;3.10;;;1.08;;
15990;SDS011;8100;50.994;4.538;2023-04-25T12:56:26;3.58;;;1.10;;
15990;SDS011;8100;50.994;4.538;2023-04-25T12:59:13;3.35;;;1.10;;
15990;SDS011;8100;50.994;4.538;2023-04-25T13:02:00;4.75;;;1.08;;
15990;SDS011;8100;50.994;4.538;2023-04-25T13:04:48;2.63;;;1.00;;
15990;SDS011;8100;50.994;4.538;2023-04-25T13:07:36;6.00;;;0.93;;
15990;SDS011;8100;50.994;4.538;2023-04-25T13:10:25;3.10;;;0.80;;
15990;SDS011;8100;50.994;4.538;2023-04-25T13:13:12;3.42;;;0.93;;
15990;SDS011;8100;50.994;4.538;2023-04-25T13:16:00;2.97;;;0.80;;
15990;SDS011;8100;50.994;4.538;2023-04-25T13:18:47;3.65;;;1.00;;
15990;SDS011;8100;50.994;4.538;2023-04-25T13:21:35;3.58;;;1.02;;
15990;SDS011;8100;50.994;4.538;2023-04-25T13:24:22;4.50;;;1.10;;
15990;SDS011;8100;50.994;4.538;2023-04-25T13:27:11;4.03;;;1.02;;
15990;SDS011;8100;50.994;4.538;2023-04-25T13:29:59;3.92;;;1.10;;
15990;SDS011;8100;50.994;4.538;2023-04-25T13:32:46;3.08;;;1.10;;
15990;SDS011;8100;50.994;4.538;2023-04-25T13:35:34;4.85;;;1.05;;
15990;SDS011;8100;50.994;4.538;2023-04-25T13:38:22;4.18;;;1.17;;
15990;SDS011;8100;50.994;4.538;2023-04-25T13:41:10;2.00;;;0.80;;
15990;SDS011;8100;50.994;4.538;2023-04-25T13:44:04;4.55;;;0.90;;
15990;SDS011;8100;50.994;4.538;2023-04-25T13:46:51;4.13;;;0.77;;
15990;SDS011;8100;50.994;4.538;2023-04-25T13:49:38;4.18;;;1.02;;
15990;SDS011;8100;50.994;4.538;2023-04-25T13:52:26;4.00;;;0.93;;
15990;SDS011;8100;50.994;4.538;2023-04-25T13:55:13;2.65;;;0.80;;
15990;SDS011;8100;50.994;4.538;2023-04-25T13:58:01;6.45;;;0.90;;
15990;SDS011;8100;50.994;4.538;2023-04-25T14:00:54;3.78;;;0.70;;
15990;SDS011;8100;50.994;4.538;2023-04-25T14:03:41;5.15;;;1.05;;
15990;SDS011;8100;50.994;4.538;2023-04-25T14:06:28;5.55;;;1.02;;
15990;SDS011;8100;50.994;4.538;2023-04-25T14:09:16;6.38;;;0.90;;
15990;SDS011;8100;50.994;4.538;2023-04-25T14:12:03;4.53;;;1.10;;
15990;SDS011;8100;50.994;4.538;2023-04-25T14:14:51;3.97;;;0.82;;
15990;SDS011;8100;50.994;4.538;2023-04-25T14:17:40;3.75;;;0.98;;
15990;SDS011;8100;50.994;4.538;2023-04-25T14:20:27;3.50;;;0.90;;
15990;SDS011;8100;50.994;4.538;2023-04-25T14:23:15;4.47;;;0.90;;
15990;SDS011;8100;50.994;4.538;2023-04-25T14:26:03;1.65;;;0.65;;
15990;SDS011;8100;50.994;4.538;2023-04-25T14:28:50;4.18;;;1.02;;
15990;SDS011;8100;50.994;4.538;2023-04-25T14:31:38;4.03;;;1.17;;
15990;SDS011;8100;50.994;4.538;2023-04-25T14:34:28;3.72;;;0.80;;
15990;SDS011;8100;50.994;4.538;2023-04-25T14:37:15;5.93;;;1.20;;
15990;SDS011;8100;50.994;4.538;2023-04-25T14:40:02;2.95;;;0.70;;
15990;SDS011;8100;50.994;4.538;2023-04-25T14:42:50;2.83;;;0.80;;
15990;SDS011;8100;50.994;4.538;2023-04-25T14:45:38;5.60;;;1.00;;
15990;SDS011;8100;50.994;4.538;2023-04-25T14:48:25;3.50;;;0.90;;
15990;SDS011;8100;50.994;4.538;2023-04-25T14:51:13;2.80;;;0.80;;
15990;SDS011;8100;50.994;4.538;2023-04-25T14:54:01;1.98;;;0.60;;
15990;SDS011;8100;50.994;4.538;2023-04-25T14:56:48;2.55;;;1.00;;
15990;SDS011;8100;50.994;4.538;2023-04-25T14:59:36;2.88;;;0.80;;
15990;SDS011;8100;50.994;4.538;2023-04-25T15:02:24;2.08;;;0.85;;
15990;SDS011;8100;50.994;4.538;2023-04-25T15:05:11;2.75;;;0.63;;
15990;SDS011;8100;50.994;4.538;2023-04-25T15:08:01;5.25;;;1.00;;
15990;SDS011;8100;50.994;4.538;2023-04-25T15:10:49;2.08;;;0.70;;
15990;SDS011;8100;50.994;4.538;2023-04-25T15:13:37;3.75;;;0.93;;
15990;SDS011;8100;50.994;4.538;2023-04-25T15:16:25;2.72;;;0.90;;
15990;SDS011;8100;50.994;4.538;2023-04-25T15:19:12;3.88;;;0.68;;
15990;SDS011;8100;50.994;4.538;2023-04-25T15:22:00;3.90;;;0.90;;
15990;SDS011;8100;50.994;4.538;2023-04-25T15:24:49;2.85;;;0.80;;
15990;SDS011;8100;50.994;4.538;2023-04-25T15:27:37;3.40;;;1.00;;
15990;SDS011;8100;50.994;4.538;2023-04-25T15:30:27;5.20;;;1.10;;
15990;SDS011;8100;50.994;4.538;2023-04-25T15:33:14;2.08;;;0.98;;
15990;SDS011;8100;50.994;4.538;2023-04-25T15:36:01;5.03;;;1.00;;
15990;SDS011;8100;50.994;4.538;2023-04-25T15:38:49;1.88;;;0.88;;
15990;SDS011;8100;50.994;4.538;2023-04-25T15:41:38;4.20;;;0.90;;
15990;SDS011;8100;50.994;4.538;2023-04-25T15:44:26;5.05;;;0.90;;
15990;SDS011;8100;50.994;4.538;2023-04-25T15:47:13;1.65;;;0.70;;
15990;SDS011;8100;50.994;4.538;2023-04-25T15:50:01;3.97;;;0.80;;
15990;SDS011;8100;50.994;4.538;2023-04-25T15:52:49;2.72;;;0.70;;
15990;SDS011;8100;50.994;4.538;2023-04-25T15:55:37;4.95;;;0.80;;
15990;SDS011;8100;50.994;4.538;2023-04-25T15:58:26;5.35;;;1.00;;
15990;SDS011;8100;50.994;4.538;2023-04-25T16:01:14;3.17;;;1.00;;
15990;SDS011;8100;50.994;4.538;2023-04-25T16:04:01;3.97;;;0.63;;
15990;SDS011;8100;50.994;4.538;2023-04-25T16:06:48;2.30;;;0.60;;
15990;SDS011;8100;50.994;4.538;2023-04-25T16:09:36;5.30;;;1.20;;
15990;SDS011;8100;50.994;4.538;2023-04-25T16:12:24;3.72;;;0.80;;
15990;SDS011;8100;50.994;4.538;2023-04-25T16:15:14;1.60;;;0.88;;
15990;SDS011;8100;50.994;4.538;2023-04-25T16:18:01;2.80;;;0.80;;
15990;SDS011;8100;50.994;4.538;2023-04-25T16:20:49;2.92;;;1.40;;
15990;SDS011;8100;50.994;4.538;2023-04-25T16:23:36;3.58;;;0.90;;
15990;SDS011;8100;50.994;4.538;2023-04-25T16:26:23;4.82;;;1.10;;
15990;SDS011;8100;50.994;4.538;2023-04-25T16:29:11;1.98;;;0.77;;
15990;SDS011;8100;50.994;4.538;2023-04-25T16:32:00;5.80;;;1.02;;
15990;SDS011;8100;50.994;4.538;2023-04-25T16:34:48;7.05;;;0.85;;
15990;SDS011;8100;50.994;4.538;2023-04-25T16:37:35;5.70;;;0.98;;
15990;SDS011;8100;50.994;4.538;2023-04-25T16:40:23;7.18;;;1.10;;
15990;SDS011;8100;50.994;4.538;2023-04-25T16:43:10;5.70;;;1.00;;
15990;SDS011;8100;50.994;4.538;2023-04-25T16:45:57;5.90;;;1.00;;
15990;SDS011;8100;50.994;4.538;2023-04-25T16:48:46;2.78;;;0.98;;
15990;SDS011;8100;50.994;4.538;2023-04-25T16:51:34;3.47;;;0.90;;
15990;SDS011;8100;50.994;4.538;2023-04-25T16:54:21;4.95;;;1.90;;
15990;SDS011;8100;50.994;4.538;2023-04-25T16:57:09;4.00;;;0.85;;
15990;SDS011;8100;50.994;4.538;2023-04-25T16:59:58;2.78;;;0.70;;
15990;SDS011;8100;50.994;4.538;2023-04-25T17:02:45;2.67;;;0.70;;
15990;SDS011;8100;50.994;4.538;2023-04-25T17:05:34;2.42;;;0.85;;
15990;SDS011;8100;50.994;4.538;2023-04-25T17:08:21;4.72;;;1.02;;
15990;SDS011;8100;50.994;4.538;2023-04-25T17:11:09;2.47;;;0.70;;